Swastika, Canada
Current Conditions -  °F | °C
As of 7:00 AM on Thursday 18 Dec 2014 (Local Time) from CYXR Reporting Station
Light Snow Light Snow  
Wind Chill: -5°   Ceiling: 1500
Heat Index: 10°   Visibility: 9mi
Dew Point:   Wind: 14mph
Humidity: 85%   Direction: 300°WNW
Pressure: 30.14"   Gusts: 20mph
Location:  48.1°N, 80.1°W
Report Text: CYXR 181200Z AUTO 30012G17KT 9SM -SN OVC015 M12/M14 A3014 RMK SLP226
Loading
Personal Weather Stations






























Interactive Weather Map New forecast layout! Learn more

10-Day Weather Forecast

Advertisements
Track Severe Weather on mobile